createdAt,value
2018-09-13T00:02:10.281Z,20.03
2018-09-13T00:04:39.103Z,9.27
2018-09-13T00:07:07.393Z,14.73
2018-09-13T00:09:35.681Z,18.57
2018-09-13T00:12:03.998Z,18.10
2018-09-13T00:14:32.294Z,13.50
2018-09-13T00:17:00.594Z,13.50
2018-09-13T00:19:28.848Z,21.30
2018-09-13T00:21:57.210Z,17.93
2018-09-13T00:24:25.456Z,17.87
2018-09-13T00:26:53.720Z,19.87
2018-09-13T00:29:22.028Z,22.30
2018-09-13T00:31:50.284Z,24.13
2018-09-13T00:34:18.588Z,23.83
2018-09-13T00:36:46.957Z,23.57
2018-09-13T00:39:15.204Z,24.07
2018-09-13T00:41:43.519Z,28.12
2018-09-13T00:44:11.926Z,20.43
2018-09-13T00:46:40.204Z,22.67
2018-09-13T00:49:08.436Z,24.18
2018-09-13T00:51:36.715Z,24.57
2018-09-13T00:54:05.013Z,25.23
2018-09-13T00:56:33.323Z,24.50
2018-09-13T00:59:01.649Z,24.30
2018-09-13T01:01:30.974Z,831.17
2018-09-13T01:03:59.215Z,26.12
2018-09-13T01:06:27.498Z,25.43
2018-09-13T01:08:55.747Z,27.77
2018-09-13T01:11:24.017Z,25.00
2018-09-13T01:13:52.312Z,22.97
2018-09-13T01:16:20.619Z,24.80
2018-09-13T01:18:48.883Z,22.60
2018-09-13T01:21:17.168Z,26.17
2018-09-13T01:23:45.441Z,22.30
2018-09-13T01:26:13.716Z,26.17
2018-09-13T01:28:42.963Z,26.50
2018-09-13T01:31:11.234Z,20.12
2018-09-13T01:33:39.497Z,24.03
2018-09-13T01:36:08.675Z,19.93
2018-09-13T01:38:36.984Z,26.63
2018-09-13T01:41:06.333Z,22.97
2018-09-13T01:43:34.620Z,24.23
2018-09-13T01:46:02.887Z,24.02
2018-09-13T01:48:31.136Z,25.73
2018-09-13T01:50:59.396Z,20.70
2018-09-13T01:53:27.694Z,25.27
2018-09-13T01:55:55.965Z,24.70
2018-09-13T01:58:24.216Z,383.23
2018-09-13T02:00:52.515Z,21.48
2018-09-13T02:03:20.775Z,21.67
2018-09-13T02:05:49.069Z,28.40
2018-09-13T02:08:17.322Z,29.52
2018-09-13T02:10:45.568Z,24.73
2018-09-13T02:13:13.972Z,32.33
2018-09-13T02:15:42.247Z,30.43
2018-09-13T02:18:10.735Z,21.70
2018-09-13T02:20:39.966Z,23.98
2018-09-13T02:23:08.310Z,25.37
2018-09-13T02:25:36.601Z,26.07
2018-09-13T02:28:04.987Z,24.95
2018-09-13T02:30:33.292Z,20.40
2018-09-13T02:33:01.614Z,21.70
2018-09-13T02:35:29.893Z,26.77
2018-09-13T02:37:58.208Z,23.50
2018-09-13T02:40:26.466Z,23.70
2018-09-13T02:42:54.729Z,23.47
2018-09-13T02:45:23.003Z,25.00
2018-09-13T02:47:51.261Z,29.13
2018-09-13T02:50:19.564Z,26.05
2018-09-13T02:52:47.811Z,29.07
2018-09-13T02:55:16.063Z,30.70
2018-09-13T02:57:44.340Z,25.15
2018-09-13T03:00:12.612Z,29.80
2018-09-13T03:02:40.868Z,27.03
2018-09-13T03:05:09.206Z,26.73
2018-09-13T03:07:37.550Z,24.80
2018-09-13T03:10:05.811Z,24.12
2018-09-13T03:12:34.094Z,24.10
2018-09-13T03:15:02.349Z,14.70
2018-09-13T03:17:30.660Z,25.90
2018-09-13T03:19:58.929Z,26.68
2018-09-13T03:22:27.234Z,25.23
2018-09-13T03:24:55.577Z,25.97
2018-09-13T03:27:24.007Z,32.90
2018-09-13T03:29:52.343Z,28.27
2018-09-13T03:32:20.649Z,98.10
2018-09-13T03:34:49.052Z,27.23
2018-09-13T03:37:17.425Z,28.60
2018-09-13T03:39:45.695Z,29.50
2018-09-13T03:42:14.020Z,25.67
2018-09-13T03:44:42.276Z,24.40
2018-09-13T03:47:11.512Z,28.05
2018-09-13T03:49:39.823Z,26.53
2018-09-13T03:52:08.197Z,26.07
2018-09-13T03:54:36.633Z,26.07
2018-09-13T03:57:05.107Z,25.43
2018-09-13T03:59:33.396Z,29.43
2018-09-13T04:02:01.749Z,24.77
2018-09-13T04:04:30.016Z,30.15
2018-09-13T04:06:58.318Z,28.83
2018-09-13T04:09:26.699Z,29.53
2018-09-13T04:11:55.063Z,25.40
2018-09-13T04:14:23.396Z,30.47
2018-09-13T04:16:51.683Z,32.23
2018-09-13T04:19:20.087Z,32.10
2018-09-13T04:21:48.386Z,29.00
2018-09-13T04:24:16.727Z,27.17
2018-09-13T04:26:51.959Z,25.50
2018-09-13T04:29:20.262Z,30.97
2018-09-13T04:32:00.101Z,31.83
2018-09-13T04:34:28.396Z,35.40
2018-09-13T04:36:56.669Z,68.43
2018-09-13T04:39:25.262Z,28.90
2018-09-13T04:41:53.621Z,35.30
2018-09-13T04:44:21.943Z,36.17
2018-09-13T04:46:50.267Z,31.60
2018-09-13T04:49:18.594Z,36.50
2018-09-13T04:51:48.049Z,42.47
2018-09-13T04:54:16.369Z,32.00
2018-09-13T04:56:44.849Z,39.03
2018-09-13T04:59:13.240Z,32.20
2018-09-13T05:01:42.537Z,35.23
2018-09-13T05:04:11.510Z,38.03
2018-09-13T05:06:41.120Z,36.63
2018-09-13T05:09:11.321Z,1999.90
2018-09-13T05:11:40.359Z,717.57
2018-09-13T05:14:11.058Z,41.90
2018-09-13T05:16:39.470Z,29.77
2018-09-13T05:19:08.025Z,1999.90
2018-09-13T05:21:36.343Z,22.83
2018-09-13T05:24:05.696Z,30.00
2018-09-13T05:26:34.067Z,31.27
2018-09-13T05:29:02.441Z,30.90
2018-09-13T05:31:31.219Z,29.17
2018-09-13T05:33:59.706Z,27.22
2018-09-13T05:36:31.549Z,29.63
2018-09-13T05:38:59.807Z,30.33
2018-09-13T05:41:28.265Z,59.03
2018-09-13T05:43:57.153Z,119.57
2018-09-13T05:46:25.946Z,1999.90
2018-09-13T05:48:54.366Z,1999.90
2018-09-13T05:51:22.774Z,1999.90
2018-09-13T05:53:51.468Z,1999.90
2018-09-13T05:56:19.942Z,1999.90
2018-09-13T05:58:48.548Z,1999.90
2018-09-13T06:01:17.021Z,1999.90
2018-09-13T06:03:45.573Z,21.23
2018-09-13T06:06:13.967Z,22.85
2018-09-13T06:08:42.648Z,23.00
2018-09-13T06:11:11.368Z,22.55
2018-09-13T06:13:40.158Z,21.30
2018-09-13T06:16:08.587Z,23.37
2018-09-13T06:18:37.165Z,21.73
2018-09-13T06:21:05.674Z,19.67
2018-09-13T06:23:34.151Z,19.53
2018-09-13T06:26:02.687Z,22.07
2018-09-13T06:28:34.505Z,25.87
2018-09-13T06:31:03.124Z,24.43
2018-09-13T06:33:32.524Z,25.10
2018-09-13T06:36:01.088Z,30.30
2018-09-13T06:38:29.580Z,26.10
2018-09-13T06:40:58.257Z,29.27
2018-09-13T06:43:27.503Z,28.10
2018-09-13T06:45:56.022Z,29.33
2018-09-13T06:48:28.173Z,28.97
2018-09-13T06:50:56.535Z,30.90
2018-09-13T06:53:27.581Z,31.30
2018-09-13T06:55:59.860Z,27.03
2018-09-13T06:58:28.365Z,24.60
2018-09-13T07:01:07.228Z,24.80
2018-09-13T07:03:35.889Z,29.77
2018-09-13T07:06:04.185Z,26.50
2018-09-13T07:08:32.449Z,33.37
2018-09-13T07:11:01.055Z,35.33
2018-09-13T07:13:29.426Z,37.17
2018-09-13T07:15:57.730Z,35.08
2018-09-13T07:18:26.186Z,35.57
2018-09-13T07:20:54.546Z,34.27
2018-09-13T07:23:23.480Z,35.10
2018-09-13T07:25:51.837Z,36.30
2018-09-13T07:28:20.594Z,36.23
2018-09-13T07:30:49.218Z,35.40
2018-09-13T07:33:18.430Z,1999.90
2018-09-13T07:35:47.382Z,1999.90
2018-09-13T07:38:15.956Z,1999.90
2018-09-13T07:40:44.579Z,1999.90
2018-09-13T07:43:13.808Z,27.67
2018-09-13T07:45:43.009Z,33.00
2018-09-13T07:48:12.573Z,1999.90
2018-09-13T07:50:42.165Z,33.63
2018-09-13T07:53:10.995Z,32.73
2018-09-13T07:55:39.652Z,25.90
2018-09-13T07:58:07.937Z,189.72
2018-09-13T08:00:36.541Z,45.13
2018-09-13T08:03:05.785Z,1999.90
2018-09-13T08:05:34.382Z,1999.90
2018-09-13T08:08:02.905Z,126.67
2018-09-13T08:10:31.309Z,1999.90
2018-09-13T08:13:00.118Z,1999.90
2018-09-13T08:15:28.502Z,1999.90
2018-09-13T08:17:56.924Z,1999.90
2018-09-13T08:20:25.517Z,1999.90
2018-09-13T08:23:00.271Z,1999.90
2018-09-13T08:25:28.667Z,1999.90
2018-09-13T08:27:57.149Z,29.95
2018-09-13T08:30:32.408Z,1.73
2018-09-13T08:33:01.593Z,0.67
2018-09-13T08:35:30.018Z,0.60
2018-09-13T08:37:58.461Z,0.65
2018-09-13T08:40:27.802Z,32.30
2018-09-13T08:42:56.500Z,25.62
2018-09-13T08:45:24.984Z,19.63
2018-09-13T08:47:53.618Z,21.15
2018-09-13T08:50:23.480Z,21.53
2018-09-13T08:52:51.788Z,22.23
2018-09-13T08:55:20.334Z,16.97
2018-09-13T08:57:48.763Z,26.10
2018-09-13T09:00:17.354Z,25.48
2018-09-13T09:02:46.356Z,21.83
2018-09-13T09:05:15.041Z,24.23
2018-09-13T09:07:43.592Z,24.85
2018-09-13T09:10:13.293Z,24.80
2018-09-13T09:12:43.060Z,25.23
2018-09-13T09:15:12.425Z,22.93
2018-09-13T09:17:41.835Z,26.50
2018-09-13T09:20:11.878Z,24.63
2018-09-13T09:22:43.030Z,24.40
2018-09-13T09:25:12.927Z,23.90
2018-09-13T09:27:42.128Z,25.70
2018-09-13T09:30:11.485Z,28.40
2018-09-13T09:32:40.495Z,24.73
2018-09-13T09:35:11.634Z,20.83
2018-09-13T09:37:41.028Z,20.60
2018-09-13T09:40:10.419Z,19.70
2018-09-13T09:42:38.794Z,22.30
2018-09-13T09:45:09.278Z,24.75
2018-09-13T09:47:38.101Z,18.77
2018-09-13T09:50:06.999Z,22.15
2018-09-13T09:52:36.870Z,22.48
2018-09-13T09:55:10.430Z,24.97
2018-09-13T09:57:38.853Z,23.33
2018-09-13T10:00:07.161Z,21.90
2018-09-13T10:02:35.539Z,21.13
2018-09-13T10:05:06.945Z,22.43
2018-09-13T10:07:35.810Z,19.67
2018-09-13T10:10:04.306Z,21.83
2018-09-13T10:12:32.552Z,18.55
2018-09-13T10:15:06.260Z,22.45
2018-09-13T10:17:43.594Z,18.00
2018-09-13T10:20:17.569Z,22.10
2018-09-13T10:22:51.319Z,18.97
2018-09-13T10:25:24.952Z,14.13
2018-09-13T10:27:58.684Z,18.97
2018-09-13T10:30:32.400Z,20.27
2018-09-13T10:33:06.173Z,17.63
2018-09-13T10:35:39.910Z,17.70
2018-09-13T10:38:14.196Z,18.27
2018-09-13T10:40:48.047Z,18.60
2018-09-13T10:44:23.666Z,16.93
2018-09-13T10:46:58.260Z,17.53
2018-09-13T10:49:32.134Z,14.63
2018-09-13T10:52:09.638Z,16.43
2018-09-13T10:54:40.305Z,16.60
2018-09-13T10:57:14.236Z,16.37
2018-09-13T10:59:43.693Z,13.00
2018-09-13T11:02:15.036Z,13.10
2018-09-13T11:04:47.152Z,15.50
2018-09-13T11:07:16.589Z,15.57
2018-09-13T11:09:47.612Z,13.33
2018-09-13T11:12:23.112Z,8.00
2018-09-13T11:14:54.077Z,690.27
2018-09-13T11:17:24.335Z,1999.90
2018-09-13T11:22:35.777Z,1999.90
2018-09-13T11:25:08.817Z,1999.90
2018-09-13T11:27:38.306Z,1999.90
2018-09-13T11:30:08.198Z,1999.90
2018-09-13T11:33:00.112Z,1999.90
2018-09-13T11:35:29.307Z,1999.90
2018-09-13T11:37:58.365Z,1999.90
2018-09-13T11:40:32.816Z,1999.90
2018-09-13T11:43:02.566Z,1999.90
2018-09-13T11:45:31.286Z,1999.90
2018-09-13T11:48:00.160Z,1999.90
2018-09-13T11:50:28.952Z,1999.90
2018-09-13T11:52:57.829Z,1999.90
2018-09-13T11:55:28.438Z,1999.90
2018-09-13T11:57:56.909Z,1999.90
2018-09-13T12:00:26.150Z,1999.90
2018-09-13T12:02:54.688Z,1999.90
2018-09-13T12:05:23.183Z,1999.90
2018-09-13T12:07:52.254Z,1999.90
2018-09-13T12:10:20.380Z,1999.90
2018-09-13T12:12:48.835Z,1999.90
2018-09-13T12:15:17.323Z,1999.90
2018-09-13T12:23:01.332Z,1999.90
2018-09-13T12:28:06.679Z,1999.90
2018-09-13T12:30:48.143Z,1999.90
2018-09-13T12:33:30.278Z,1999.90
2018-09-13T12:35:58.606Z,1999.90
2018-09-13T12:41:04.172Z,1999.90
2018-09-13T12:46:14.005Z,1999.90
2018-09-13T12:48:42.748Z,1999.90
2018-09-13T12:51:11.162Z,1999.90
2018-09-13T12:53:39.977Z,1999.90
2018-09-13T12:56:08.353Z,1999.90
2018-09-13T13:03:57.629Z,1999.90
2018-09-13T13:06:41.839Z,1999.90
2018-09-13T13:09:14.713Z,1999.90
2018-09-13T13:14:32.552Z,1999.90
2018-09-13T13:17:05.848Z,1999.90
2018-09-13T13:19:34.350Z,1999.90
2018-09-13T13:22:13.127Z,1999.90
2018-09-13T13:27:23.500Z,1999.90
2018-09-13T13:29:51.944Z,1999.90
2018-09-13T13:32:20.328Z,1999.90
2018-09-13T13:35:02.068Z,1999.90
2018-09-13T13:37:30.737Z,1999.90
2018-09-13T13:40:08.095Z,1999.90
2018-09-13T13:45:38.191Z,1999.90
2018-09-13T14:13:03.464Z,1999.90
2018-09-13T14:15:40.764Z,1999.90
2018-09-13T14:18:13.533Z,1999.90
2018-09-13T14:20:42.162Z,1999.90
2018-09-13T14:26:01.737Z,1999.90
2018-09-13T14:42:21.465Z,1999.90
2018-09-13T14:44:49.969Z,1999.90
2018-09-13T14:47:18.381Z,1999.90
2018-09-13T14:49:46.849Z,1999.90
2018-09-13T14:52:15.221Z,1999.90
2018-09-13T14:54:43.591Z,1999.90
2018-09-13T14:57:11.957Z,1999.90
2018-09-13T14:59:40.269Z,1999.90
2018-09-13T15:02:08.586Z,1999.90
2018-09-13T15:04:36.970Z,1999.90
2018-09-13T15:07:05.485Z,1999.90
2018-09-13T15:09:33.782Z,1999.90
2018-09-13T15:12:02.203Z,1999.90
2018-09-13T15:14:30.559Z,1999.90
2018-09-13T15:16:58.961Z,1999.90
2018-09-13T15:19:27.455Z,1999.90
2018-09-13T15:21:56.076Z,1999.90
2018-09-13T15:24:24.455Z,1999.90
2018-09-13T15:26:52.815Z,1999.90
2018-09-13T15:29:21.337Z,1999.90
2018-09-13T15:31:49.710Z,1999.90
2018-09-13T15:34:18.189Z,1999.90
2018-09-13T15:36:46.527Z,1999.90
2018-09-13T15:39:14.948Z,1999.90
2018-09-13T15:41:43.399Z,1999.90
2018-09-13T15:44:11.748Z,1999.90
2018-09-13T15:46:40.135Z,1999.90
2018-09-13T15:49:08.790Z,1999.90
2018-09-13T15:51:37.527Z,1999.90
2018-09-13T15:54:06.030Z,1999.90
2018-09-13T15:56:34.476Z,1999.90
2018-09-13T15:59:02.774Z,1999.90
2018-09-13T16:01:31.127Z,1999.90
2018-09-13T16:03:59.456Z,1999.90
2018-09-13T16:06:27.920Z,1999.90
2018-09-13T16:08:56.267Z,1999.90
2018-09-13T16:11:25.049Z,1999.90
2018-09-13T16:13:53.505Z,1999.90
2018-09-13T16:16:21.891Z,1999.90
2018-09-13T16:18:50.225Z,1999.90
2018-09-13T16:21:18.622Z,1999.90
2018-09-13T16:23:46.869Z,1999.90
2018-09-13T16:26:15.370Z,1999.90
2018-09-13T16:28:43.649Z,1999.90
2018-09-13T16:31:12.076Z,1999.90
2018-09-13T16:33:40.446Z,1999.90
2018-09-13T16:36:14.264Z,1999.90
2018-09-13T16:38:48.062Z,1999.90
2018-09-13T16:41:21.739Z,1999.90
2018-09-13T16:43:55.390Z,1999.90
2018-09-13T16:46:29.099Z,1999.90
2018-09-13T16:48:57.346Z,1999.90
2018-09-13T16:51:25.690Z,1999.90
2018-09-13T16:53:54.096Z,1999.90
2018-09-13T16:56:22.460Z,1999.90
2018-09-13T16:58:50.870Z,1999.90
2018-09-13T17:01:19.395Z,1999.90
2018-09-13T17:03:47.786Z,1999.90
2018-09-13T17:06:16.289Z,1999.90
2018-09-13T17:08:44.624Z,1999.90
2018-09-13T17:11:13.374Z,1999.90
2018-09-13T17:13:41.834Z,1999.90
2018-09-13T17:16:10.320Z,1999.90
2018-09-13T17:18:38.615Z,1999.90
2018-09-13T17:21:07.181Z,1999.90
2018-09-13T17:23:41.581Z,1999.90
2018-09-13T17:26:24.513Z,1999.90
2018-09-13T17:29:06.224Z,1999.90
2018-09-13T17:31:40.123Z,1999.90
2018-09-13T17:34:19.176Z,1999.90
2018-09-13T17:36:54.505Z,1999.90
2018-09-13T17:39:23.279Z,1999.90
2018-09-13T17:41:51.841Z,1999.90
2018-09-13T17:44:20.392Z,1999.90
2018-09-13T17:46:49.022Z,1999.90
2018-09-13T17:49:17.506Z,1999.90
2018-09-13T17:51:45.956Z,1999.90
2018-09-13T17:54:14.476Z,1999.90
2018-09-13T17:56:42.968Z,1999.90
2018-09-13T17:59:11.453Z,1999.90
2018-09-13T18:04:35.689Z,16.70
2018-09-13T18:07:04.081Z,18.97
2018-09-13T18:09:32.594Z,10.53
2018-09-13T18:12:01.201Z,10.50
2018-09-13T18:14:30.124Z,25.12
2018-09-13T18:17:00.716Z,26.33
2018-09-13T18:19:29.556Z,27.70
2018-09-13T18:21:58.300Z,22.83
2018-09-13T18:24:26.903Z,26.50
2018-09-13T18:26:55.441Z,24.47
2018-09-13T18:29:23.828Z,29.03
2018-09-13T18:31:52.256Z,28.33
2018-09-13T18:34:20.795Z,30.30
2018-09-13T18:36:49.502Z,27.82
2018-09-13T18:39:18.005Z,33.33
2018-09-13T18:41:46.620Z,32.40
2018-09-13T18:44:15.015Z,31.73
2018-09-13T18:46:43.293Z,35.70
2018-09-13T18:49:11.967Z,31.60
2018-09-13T18:51:40.549Z,31.93
2018-09-13T18:54:08.901Z,33.75
2018-09-13T18:56:55.320Z,32.40
2018-09-13T18:59:23.830Z,36.53
2018-09-13T19:01:52.259Z,35.20
2018-09-13T19:04:20.725Z,32.93
2018-09-13T19:06:49.338Z,33.42
2018-09-13T19:09:17.697Z,35.83
2018-09-13T19:11:46.137Z,37.88
2018-09-13T19:14:14.624Z,34.93
2018-09-13T19:16:43.092Z,34.25
2018-09-13T19:19:12.150Z,34.57
2018-09-13T19:21:40.635Z,38.93
2018-09-13T19:24:09.313Z,36.93
2018-09-13T19:26:37.742Z,34.77
2018-09-13T19:29:06.160Z,39.10
2018-09-13T19:31:34.596Z,35.77
2018-09-13T19:34:03.159Z,41.60
2018-09-13T19:36:31.644Z,42.23
2018-09-13T19:39:00.148Z,36.30
2018-09-13T19:41:28.501Z,39.90
2018-09-13T19:43:56.980Z,35.67
2018-09-13T19:46:43.843Z,38.17
2018-09-13T19:49:12.294Z,38.47
2018-09-13T19:51:40.803Z,39.20
2018-09-13T19:54:09.116Z,38.57
2018-09-13T19:56:37.633Z,39.05
2018-09-13T19:59:06.567Z,42.23
2018-09-13T20:01:35.194Z,41.43
2018-09-13T20:04:05.824Z,45.03
2018-09-13T20:06:34.809Z,45.40
2018-09-13T20:09:03.495Z,39.30
2018-09-13T20:11:33.385Z,41.35
2018-09-13T20:14:03.241Z,41.37
2018-09-13T20:16:31.703Z,45.10
2018-09-13T20:19:01.388Z,48.85
2018-09-13T20:21:29.934Z,37.70
2018-09-13T20:23:58.448Z,39.05
2018-09-13T20:26:28.334Z,36.67
2018-09-13T20:28:56.749Z,39.07
2018-09-13T20:31:25.272Z,41.88
2018-09-13T20:33:53.761Z,40.50
2018-09-13T20:36:22.197Z,42.35
2018-09-13T20:38:50.603Z,43.10
2018-09-13T20:41:19.049Z,44.20
2018-09-13T20:43:47.485Z,39.77
2018-09-13T20:46:15.872Z,42.58
2018-09-13T20:48:44.465Z,42.63
2018-09-13T20:51:13.220Z,48.35
2018-09-13T20:53:41.737Z,45.55
2018-09-13T20:56:12.433Z,44.03
2018-09-13T20:58:42.662Z,41.13
2018-09-13T21:01:17.761Z,42.10
2018-09-13T21:03:56.476Z,43.10
2018-09-13T21:06:25.394Z,40.57
2018-09-13T21:08:56.197Z,41.33
2018-09-13T21:11:26.741Z,42.87
2018-09-13T21:13:55.531Z,47.67
2018-09-13T21:16:24.329Z,48.83
2018-09-13T21:18:54.039Z,45.58
2018-09-13T21:21:23.088Z,44.27
2018-09-13T21:23:52.085Z,47.03
2018-09-13T21:26:21.462Z,43.37
2018-09-13T21:29:00.889Z,46.83
2018-09-13T21:31:29.829Z,45.30
2018-09-13T21:33:59.487Z,45.40
2018-09-13T21:36:28.901Z,43.57
2018-09-13T21:38:57.392Z,43.00
2018-09-13T21:41:25.840Z,48.65
2018-09-13T21:43:54.489Z,45.00
2018-09-13T21:46:26.156Z,47.53
2018-09-13T21:48:54.897Z,50.10
2018-09-13T21:51:23.719Z,50.57
2018-09-13T21:53:52.372Z,48.20
2018-09-13T21:56:20.857Z,53.30
2018-09-13T21:58:49.512Z,47.30
2018-09-13T22:01:18.014Z,46.20
2018-09-13T22:03:46.748Z,47.73
2018-09-13T22:06:15.430Z,47.65
2018-09-13T22:08:44.503Z,44.30
2018-09-13T22:11:14.672Z,47.70
2018-09-13T22:13:43.310Z,42.37
2018-09-13T22:16:12.074Z,37.83
2018-09-13T22:18:40.879Z,42.88
2018-09-13T22:21:19.091Z,46.03
2018-09-13T22:23:52.959Z,45.03
2018-09-13T22:26:21.496Z,40.87
2018-09-13T22:28:49.992Z,48.38
2018-09-13T22:31:29.536Z,45.23
2018-09-13T22:33:58.118Z,44.07
2018-09-13T22:36:26.804Z,46.80
2018-09-13T22:38:55.329Z,45.47
2018-09-13T22:41:23.887Z,46.50
2018-09-13T22:44:10.480Z,43.50
2018-09-13T22:46:38.900Z,46.13
2018-09-13T22:49:07.589Z,43.28
2018-09-13T22:51:36.071Z,42.40
2018-09-13T22:54:04.558Z,45.03
2018-09-13T22:56:33.004Z,40.53
2018-09-13T22:59:01.499Z,40.55
2018-09-13T23:01:30.045Z,43.13
2018-09-13T23:04:07.899Z,43.63
2018-09-13T23:06:36.592Z,42.87
2018-09-13T23:09:08.357Z,43.35
2018-09-13T23:11:37.057Z,40.60
2018-09-13T23:14:05.596Z,42.60
2018-09-13T23:16:34.463Z,40.70
2018-09-13T23:19:03.014Z,39.40
2018-09-13T23:21:31.448Z,36.07
2018-09-13T23:24:00.105Z,43.67
2018-09-13T23:26:28.460Z,40.83
2018-09-13T23:28:57.337Z,39.45
2018-09-13T23:31:25.756Z,41.40
2018-09-13T23:33:54.416Z,40.83
2018-09-13T23:36:22.967Z,42.78
2018-09-13T23:38:51.438Z,44.80
2018-09-13T23:41:19.925Z,42.88
2018-09-13T23:43:48.329Z,47.13
2018-09-13T23:46:16.851Z,38.53
2018-09-13T23:48:45.806Z,42.87
2018-09-13T23:51:14.273Z,45.97
2018-09-13T23:53:42.885Z,46.90
2018-09-13T23:56:11.331Z,48.97
2018-09-13T23:58:40.093Z,41.10
